Terminal Aerodrome Forecast
Issued by NWS

Home | Current Version | Previous Version | Text Only | Print | Product List | Glossary On
Versions: 1 2 3 4 5 6 7 8 9 10 11 12
902
FTUS42 KTBW 271303 AAA
TAFLAL
TAF AMD
KLAL 271303Z 2713/2812 17006KT P6SM FEW250
      TEMPO 2713/2714 4SM BR BKN002
     FM271600 18010G15KT P6SM FEW250
     FM272100 22010KT P6SM FEW060
     FM280100 24006KT P6SM FEW250
     FM280900 VRB03KT P6SM SCT035=

USA.gov is the U.S. government's official web portal to all federal, state and local government web resources and services.